Flight Track Log - Related Links

Times and Time Zones

All times are in EDT time to prevent confusion due to time zone crossing. See the RAX701 flight status page for this flight to view local times or setup timezone preferences in your user account.

Time Position Orientation Groundspeed Altitude Reporting Facility
EDT Latitude Longitude Course Direction KTS MPH feet Rate Location/Type
Thu 03:43:20 PM 35.7728 -81.3769 243° Southwest 148 170 2,300  Level Atlanta Center
Thu 03:44:20 PM 35.7531 -81.4314 246° West 81 93 10,000 1,300 Climbing Atlanta Center
Thu 03:45:20 PM 35.7333 -81.4806 244° Southwest 149 171 4,900 -1,950 Descending Atlanta Center
Thu 03:46:20 PM 35.7136 -81.5375 247° West 177 204 6,100 1,200 Climbing Atlanta Center
Thu 03:47:00 PM 35.5937 -81.7821 243° Southwest  Level FlightAware Approximate
Thu 03:47:20 PM 35.6958 -81.5864 246° West 177 204 7,300  Level Atlanta Center
Thu 03:48:20 PM 35.6761 -81.6408 246° West 177 204 8,400 1,050 Climbing Atlanta Center
Thu 03:49:20 PM 35.6561 -81.6900 243° Southwest 177 204 9,400 850 Climbing Atlanta Center
Thu 03:50:20 PM 35.6342 -81.7442 244° Southwest 177 204 10,100 350 Climbing Atlanta Center
Thu 03:51:20 PM 35.6122 -81.7958 242° Southwest 187 215 10,100 50 Level Atlanta Center
Thu 03:52:20 PM 35.5861 -81.8553 242° Southwest 199 229 10,200 -50 Climbing Atlanta Center
Thu 03:53:20 PM 35.5603 -81.9225 245° Southwest 199 229 10,000 -100 Descending Atlanta Center
Thu 03:54:20 PM 35.5364 -81.9869 246° West 206 237 10,000  Level Atlanta Center
Thu 03:55:20 PM 35.5122 -82.0511 245° Southwest 213 245 10,000 -50 Level Atlanta Center
Thu 03:56:20 PM 35.4925 -82.1231 251° West 213 245 9,900  Descending Atlanta Center
Thu 03:57:20 PM 35.4644 -82.1953 245° Southwest 213 245 10,000 50 Climbing Atlanta Center
Thu 03:58:20 PM 35.4383 -82.2619 244° Southwest 218 251 10,000  Level Atlanta Center
Thu 03:59:20 PM 35.4142 -82.3264 245° Southwest 218 251 10,000  Level Atlanta Center
Thu 04:00:20 PM 35.3858 -82.3956 243° Southwest 218 251 10,000  Level Atlanta Center
Thu 04:01:20 PM 35.3617 -82.4597 245° Southwest 218 251 10,000  Level Atlanta Center
Thu 04:04:08 PM 35.2786 -82.6472 242° Southwest 220 253 10,000  Level Atlanta Center
Thu 04:05:08 PM 35.2583 -82.7008 245° Southwest 213 245 10,000  Level Atlanta Center
Thu 04:06:08 PM 35.2339 -82.7750 248° West 225 259 10,000  Level Atlanta Center
Thu 04:07:08 PM 35.2094 -82.8364 244° Southwest 218 251 10,000 50 Level Atlanta Center
Thu 04:08:08 PM 35.1831 -82.9003 243° Southwest 218 251 10,100 50 Climbing Atlanta Center
Thu 04:09:08 PM 35.1586 -82.9692 247° West 218 251 10,100 -50 Level Atlanta Center
Thu 04:10:08 PM 35.1361 -83.0381 248° West 218 251 10,000 50 Descending Atlanta Center
Thu 04:11:08 PM 35.1097 -83.1019 243° Southwest 218 251 10,200  Climbing Atlanta Center
Thu 04:12:08 PM 35.0831 -83.1681 244° Southwest 218 251 10,000 -100 Descending Atlanta Center
Thu 04:13:08 PM 35.0542 -83.2344 242° Southwest 218 251 10,000  Level Atlanta Center
Thu 04:14:08 PM 35.0275 -83.3031 245° Southwest 224 258 10,000 -50 Level Atlanta Center
Thu 04:15:08 PM 35.0008 -83.3719 245° Southwest 224 258 9,900 -50 Descending Atlanta Center
Thu 04:16:08 PM 34.9781 -83.4356 246° West 224 258 9,900 50 Level Atlanta Center
Thu 04:17:08 PM 34.9492 -83.5092 244° Southwest 224 258 10,000 50 Climbing Atlanta Center
Thu 04:18:08 PM 34.9203 -83.5703 240° Southwest 224 258 10,000  Level Atlanta Center
Thu 04:19:08 PM 34.8956 -83.6361 245° Southwest 224 258 10,000 -50 Level Atlanta Center
Thu 04:20:08 PM 34.8708 -83.7044 246° West 224 258 9,900 -50 Descending Atlanta Center
Thu 04:21:08 PM 34.8417 -83.7706 242° Southwest 224 258 9,900 50 Level Atlanta Center
Thu 04:22:08 PM 34.8167 -83.8414 247° West 224 258 10,000 50 Climbing Atlanta Center
Thu 04:23:08 PM 34.7897 -83.9097 244° Southwest 224 258 10,000 50 Level Atlanta Center
Thu 04:24:08 PM 34.7625 -83.9781 244° Southwest 224 258 10,100 -50 Climbing Atlanta Center
Thu 04:25:08 PM 34.7314 -84.0439 240° Southwest 224 258 9,900 -50 Descending Atlanta Center
Thu 04:26:08 PM 34.7042 -84.1094 243° Southwest 224 258 10,000  Climbing Atlanta Center
Thu 04:27:08 PM 34.6750 -84.1778 243° Southwest 224 258 9,900  Descending Atlanta Center
Thu 04:28:08 PM 34.6478 -84.2483 245° Southwest 224 258 10,000 50 Climbing Atlanta Center
Thu 04:29:08 PM 34.6164 -84.3164 241° Southwest 224 258 10,000  Level Atlanta Center
Thu 04:30:08 PM 34.5911 -84.3819 245° Southwest 219 252 10,000  Level Atlanta Center
Thu 04:31:08 PM 34.5636 -84.4500 244° Southwest 219 252 10,000  Level Atlanta Center
Thu 04:32:08 PM 34.5383 -84.5206 247° West 224 258 10,000 -50 Level Atlanta Center
Thu 04:33:08 PM 34.5131 -84.5883 246° West 224 258 9,900 50 Descending Atlanta Center
Thu 04:34:08 PM 34.4897 -84.6486 245° Southwest 224 258 10,100 50 Climbing Atlanta Center
Thu 04:35:08 PM 34.4625 -84.7139 243° Southwest 224 258 10,000  Descending Atlanta Center
Thu 04:36:08 PM 34.4328 -84.7842 243° Southwest 224 258 10,100  Climbing Atlanta Center
Thu 04:37:08 PM 34.4053 -84.8519 244° Southwest 224 258 10,000 -100 Descending Atlanta Center
Thu 04:38:08 PM 34.3692 -84.9169 236° Southwest 229 264 9,900 -50 Descending Atlanta Center
Thu 04:39:08 PM 34.3436 -84.9847 245° Southwest 229 264 9,900  Level Atlanta Center
Thu 04:40:08 PM 34.3139 -85.0522 242° Southwest 224 258 9,900 50 Level Atlanta Center
Thu 04:41:08 PM 34.2864 -85.1175 243° Southwest 218 251 10,000  Climbing Atlanta Center
Thu 04:42:08 PM 34.2564 -85.1875 243° Southwest 224 258 9,900  Descending Atlanta Center
Thu 04:43:08 PM 34.2264 -85.2597 243° Southwest 224 258 10,000 50 Climbing Atlanta Center
Thu 04:44:08 PM 34.1986 -85.3297 244° Southwest 224 258 10,000  Level Atlanta Center
Thu 04:45:08 PM 34.1686 -85.3994 243° Southwest 224 258 10,000  Level Atlanta Center
Thu 04:46:08 PM 34.1408 -85.4644 243° Southwest 224 258 10,000 -50 Level Atlanta Center
Thu 04:47:08 PM 34.1150 -85.5317 245° Southwest 224 258 9,900  Descending Atlanta Center
Thu 04:48:08 PM 34.0869 -85.5989 243° Southwest 231 266 10,000 50 Climbing Atlanta Center
Thu 04:49:08 PM 34.0569 -85.6661 242° Southwest 226 260 10,000 -50 Level Atlanta Center
Thu 04:50:08 PM 34.0269 -85.7331 242° Southwest 226 260 9,900  Descending Atlanta Center
Thu 04:51:08 PM 34.0008 -85.8028 246° West 226 260 10,000 100 Climbing Atlanta Center
Thu 04:52:08 PM 33.9706 -85.8672 240° Southwest 226 260 10,100 -50 Climbing Atlanta Center
Thu 04:53:08 PM 33.9403 -85.9342 241° Southwest 226 260 9,900 -700 Descending Atlanta Center
Thu 04:54:08 PM 33.9058 -86.0061 240° Southwest 233 268 8,700 -1,000 Descending Atlanta Center
Thu 04:55:08 PM 33.8775 -86.0806 245° Southwest 243 280 7,900 -400 Descending Atlanta Center
Thu 04:56:08 PM 33.8472 -86.1472 241° Southwest 248 285 7,900 50 Level Atlanta Center
Thu 04:57:07 PM 33.8167 -86.2192 243° Southwest 222 255 8,000  Climbing Atlanta Center
Thu 04:58:01 PM 33.7906 -86.2808 243° Southwest 223 257 7,900  Descending Atlanta Center
Thu 04:59:02 PM 33.7600 -86.3475 241° Southwest 224 258 8,000 -98 Climbing Atlanta Center
Thu 05:00:03 PM 33.7339 -86.4142 245° Southwest 224 258 7,700 -429 Descending Atlanta Center
Thu 05:01:08 PM 33.7053 -86.4883 245° Southwest 235 270 7,100 -576 Descending Atlanta Center
Thu 05:02:08 PM 33.6767 -86.5575 244° Southwest 240 276 6,500 -500 Descending Atlanta Center
Thu 05:03:08 PM 33.6439 -86.6264 240° Southwest 235 270 6,100 -300 Descending Atlanta Center
Thu 05:04:08 PM 33.6133 -86.6903 240° Southwest 235 270 5,900 -102 Descending Atlanta Center
Thu 05:05:06 PM 33.5825 -86.7617 243° Southwest 232 267 5,900 46 Level Atlanta Center
Thu 05:06:19 PM 33.5514 -86.8456 246° West 227 261 6,000  Climbing Atlanta Center
Thu 05:07:13 PM 33.5231 -86.9069 241° Southwest 226 260 5,900 -50 Descending Atlanta Center
Thu 05:08:20 PM 33.4942 -86.9781 244° Southwest 226 260 5,900 45 Level Atlanta Center
Thu 05:09:27 PM 33.4631 -87.0567 245° Southwest 224 258 6,000 58 Climbing Atlanta Center
Thu 05:10:03 PM 33.4475 -87.0961 245° Southwest 224 258 6,000  Level Atlanta Center
Thu 05:11:04 PM 33.4208 -87.1622 244° Southwest 222 255 6,000 -98 Level Atlanta Center
Thu 05:12:05 PM 33.3897 -87.2283 241° Southwest 221 254 5,800 -50 Descending Atlanta Center
Thu 05:13:05 PM 33.3631 -87.2969 245° Southwest 227 261 5,900 -446 Climbing Atlanta Center
Thu 05:14:06 PM 33.3361 -87.3656 245° Southwest 226 260 4,900 -1,033 Descending Atlanta Center
Thu 05:15:07 PM 33.3114 -87.4317 246° West 227 261 3,800 -1,131 Descending Atlanta Center
Thu 05:16:08 PM 33.2886 -87.4981 248° West 216 249 2,600 -898 Descending Atlanta Center
Thu 05:17:14 PM 33.2639 -87.5592 244° Southwest 165 190 1,900 -472 Descending Atlanta Center
Thu 05:18:15 PM 33.2442 -87.5881 231° Southwest 158 182 1,600 -148 Descending Atlanta Center
Thu 05:19:16 PM 33.2442 -87.5881 132° Southeast 158 182 1,600  Level Atlanta Center
Thu 05:21:00 PM 33.2167 -87.6000 220° Southwest  Level FlightAware Approximate
Thu 05:28:00 PM 33.2206 -87.6114 220° Southwest  Level Estimated
Thu 05:29:00 PM 33.2206 -87.6114 220° Southwest  Level Estimated
Thu 05:30:00 PM 33.2206 -87.6114 220° Southwest  Level Estimated
Thu 05:31:00 PM 33.2206 -87.6114 220° Southwest  Level Estimated
Thu 05:32:00 PM 33.2206 -87.6114 220° Southwest  Level Estimated
Thu 05:33:00 PM 33.2206 -87.6114 220° Southwest  Level Estimated

Login

Don't have an account? Register now (free) for customized features, flight alerts, and more!